Terminal Aerodrome Forecast
Issued by NWS

Home | Current Version | Previous Version | Text Only | Print | Product List | Glossary On
Versions: 1 2 3 4 5 6 7 8 9 10 11 12 13 14 15 16 17 18 19 20 21 22 23
197
FTUS41 KGYX 171731
TAFHIE
TAF
KHIE 171731Z 1718/1818 00000KT P6SM SCT025
     FM180300 12009KT 4SM -SN OVC010
     FM180500 12009KT 1SM -SN OVC020
     FM181500 09005KT P6SM OVC015=

USA.gov is the U.S. government's official web portal to all federal, state and local government web resources and services.